createdAt,value
2023-02-25T00:01:54.402Z,97.98
2023-02-25T00:04:32.344Z,98.00
2023-02-25T00:07:02.222Z,97.73
2023-02-25T00:09:31.488Z,98.14
2023-02-25T00:12:00.029Z,98.01
2023-02-25T00:14:29.457Z,98.20
2023-02-25T00:16:58.222Z,98.06
2023-02-25T00:19:27.518Z,98.29
2023-02-25T00:21:56.456Z,98.29
2023-02-25T00:24:26.189Z,98.32
2023-02-25T00:26:54.690Z,98.36
2023-02-25T00:29:23.243Z,98.45
2023-02-25T00:31:52.027Z,98.45
2023-02-25T00:34:20.654Z,98.60
2023-02-25T00:36:50.106Z,98.64
2023-02-25T00:39:19.011Z,98.59
2023-02-25T00:41:48.620Z,98.54
2023-02-25T00:44:17.184Z,98.75
2023-02-25T00:46:45.437Z,98.88
2023-02-25T00:49:27.031Z,98.86
2023-02-25T00:52:00.687Z,98.81
2023-02-25T00:54:29.428Z,99.20
2023-02-25T00:56:59.028Z,99.23
2023-02-25T00:59:27.583Z,99.10
2023-02-25T01:01:56.251Z,99.12
2023-02-25T01:04:25.475Z,98.92
2023-02-25T01:06:54.951Z,98.99
2023-02-25T01:09:23.758Z,98.97
2023-02-25T01:11:52.305Z,99.10
2023-02-25T01:14:24.996Z,99.23
2023-02-25T01:16:56.110Z,99.48
2023-02-25T01:19:26.488Z,99.33
2023-02-25T01:21:57.089Z,99.20
2023-02-25T01:24:28.684Z,99.35
2023-02-25T01:26:59.003Z,99.30
2023-02-25T01:29:32.319Z,99.56
2023-02-25T01:32:03.089Z,99.60
2023-02-25T01:34:33.081Z,99.56
2023-02-25T01:37:04.598Z,99.58
2023-02-25T01:39:34.043Z,99.68
2023-02-25T01:42:05.091Z,99.49
2023-02-25T01:44:41.753Z,99.47
2023-02-25T01:47:21.544Z,99.37
2023-02-25T01:49:49.949Z,99.68
2023-02-25T01:52:23.794Z,99.62
2023-02-25T01:54:55.939Z,99.18
2023-02-25T01:57:25.629Z,99.25
2023-02-25T01:59:56.251Z,99.50
2023-02-25T02:02:29.729Z,99.01
2023-02-25T02:04:58.417Z,98.73
2023-02-25T02:07:26.924Z,99.23
2023-02-25T02:09:56.906Z,99.12
2023-02-25T02:12:27.359Z,99.23
2023-02-25T02:15:01.275Z,98.85
2023-02-25T02:17:36.890Z,99.32
2023-02-25T02:20:14.075Z,99.16
2023-02-25T02:23:22.101Z,99.14
2023-02-25T02:26:38.288Z,99.08
2023-02-25T02:29:33.781Z,99.17
2023-02-25T02:32:15.864Z,99.36
2023-02-25T02:34:53.619Z,98.77
2023-02-25T02:37:35.921Z,98.87
2023-02-25T02:40:19.589Z,98.97
2023-02-25T02:43:01.486Z,98.81
2023-02-25T02:45:38.070Z,98.74
2023-02-25T02:48:13.503Z,98.57
2023-02-25T02:50:46.374Z,98.51
2023-02-25T02:53:21.241Z,98.34
2023-02-25T02:55:56.246Z,98.68
2023-02-25T02:58:30.326Z,98.95
2023-02-25T03:01:05.508Z,98.69
2023-02-25T03:03:41.319Z,99.14
2023-02-25T03:06:15.271Z,99.02
2023-02-25T03:08:47.663Z,99.32
2023-02-25T03:11:17.398Z,99.38
2023-02-25T03:13:47.218Z,99.32
2023-02-25T03:16:22.671Z,99.15
2023-02-25T03:18:59.990Z,99.52
2023-02-25T03:21:35.936Z,99.57
2023-02-25T03:24:08.993Z,99.55
2023-02-25T03:26:42.607Z,99.74
2023-02-25T03:29:17.329Z,99.76
2023-02-25T03:31:56.513Z,100.00
2023-02-25T03:34:32.955Z,99.92
2023-02-25T03:37:06.490Z,100.00
2023-02-25T03:39:41.214Z,100.00
2023-02-25T03:42:13.300Z,99.95
2023-02-25T03:44:49.421Z,99.87
2023-02-25T03:47:19.182Z,99.96
2023-02-25T03:49:59.168Z,99.88
2023-02-25T03:52:29.152Z,99.90
2023-02-25T03:55:01.921Z,99.84
2023-02-25T03:57:38.988Z,99.93
2023-02-25T04:00:16.028Z,99.82
2023-02-25T04:02:45.685Z,99.58
2023-02-25T04:05:17.359Z,99.62
2023-02-25T04:07:45.955Z,99.66
2023-02-25T04:10:17.185Z,99.63
2023-02-25T04:12:46.956Z,99.28
2023-02-25T04:15:15.533Z,99.14
2023-02-25T04:17:45.114Z,99.47
2023-02-25T04:20:17.455Z,99.14
2023-02-25T04:22:46.355Z,99.03
2023-02-25T04:25:14.848Z,99.01
2023-02-25T04:27:43.128Z,98.83
2023-02-25T04:30:13.448Z,99.11
2023-02-25T04:32:42.121Z,98.87
2023-02-25T04:35:13.454Z,98.65
2023-02-25T04:37:43.926Z,98.76
2023-02-25T04:40:17.838Z,98.58
2023-02-25T04:42:46.660Z,98.60
2023-02-25T04:45:16.472Z,98.39
2023-02-25T04:47:45.394Z,98.29
2023-02-25T04:50:14.276Z,98.49
2023-02-25T04:52:43.856Z,98.30
2023-02-25T04:55:12.958Z,98.13
2023-02-25T04:57:42.369Z,98.01
2023-02-25T05:00:19.153Z,97.86
2023-02-25T05:02:49.056Z,98.19
2023-02-25T05:05:18.482Z,97.64
2023-02-25T05:07:48.090Z,97.64
2023-02-25T05:10:17.568Z,97.54
2023-02-25T05:12:45.850Z,97.81
2023-02-25T05:15:14.828Z,97.21
2023-02-25T05:17:43.093Z,97.33
2023-02-25T05:20:13.281Z,97.17
2023-02-25T05:22:42.701Z,97.32
2023-02-25T05:25:12.905Z,97.02
2023-02-25T05:27:41.179Z,96.99
2023-02-25T05:30:11.321Z,96.94
2023-02-25T05:32:39.934Z,97.10
2023-02-25T05:35:12.019Z,96.97
2023-02-25T05:37:40.622Z,97.21
2023-02-25T05:40:13.964Z,96.86
2023-02-25T05:42:42.617Z,96.69
2023-02-25T05:45:12.339Z,96.76
2023-02-25T05:47:40.847Z,96.64
2023-02-25T05:50:11.001Z,96.56
2023-02-25T05:52:39.309Z,96.71
2023-02-25T05:55:09.941Z,96.21
2023-02-25T05:57:39.931Z,96.49
2023-02-25T06:00:14.621Z,96.24
2023-02-25T06:02:44.244Z,96.21
2023-02-25T06:05:14.170Z,96.07
2023-02-25T06:07:42.755Z,96.12
2023-02-25T06:10:12.837Z,96.18
2023-02-25T06:12:46.623Z,96.23
2023-02-25T06:15:15.532Z,95.99
2023-02-25T06:17:44.093Z,96.19
2023-02-25T06:20:16.481Z,96.12
2023-02-25T06:22:44.845Z,96.56
2023-02-25T06:25:13.561Z,96.25
2023-02-25T06:27:43.591Z,96.41
2023-02-25T06:30:13.084Z,96.18
2023-02-25T06:32:43.639Z,96.28
2023-02-25T06:35:12.291Z,95.57
2023-02-25T06:37:40.803Z,95.80
2023-02-25T06:40:12.398Z,95.23
2023-02-25T06:42:42.131Z,95.50
2023-02-25T06:45:11.376Z,95.20
2023-02-25T06:47:39.851Z,95.48
2023-02-25T06:50:10.436Z,95.15
2023-02-25T06:52:39.003Z,95.45
2023-02-25T06:55:10.068Z,94.60
2023-02-25T06:57:38.647Z,94.89
2023-02-25T07:00:10.427Z,94.89
2023-02-25T07:02:38.682Z,94.91
2023-02-25T07:05:07.622Z,94.71
2023-02-25T07:07:36.389Z,95.07
2023-02-25T07:10:05.658Z,95.06
2023-02-25T07:12:34.213Z,95.40
2023-02-25T07:15:03.045Z,95.46
2023-02-25T07:17:32.639Z,95.20
2023-02-25T07:20:01.112Z,95.27
2023-02-25T07:22:29.436Z,95.19
2023-02-25T07:24:57.993Z,95.50
2023-02-25T07:27:27.200Z,95.25
2023-02-25T07:29:56.097Z,95.26
2023-02-25T07:32:26.049Z,95.44
2023-02-25T07:34:55.766Z,95.27
2023-02-25T07:37:24.216Z,95.49
2023-02-25T07:39:52.721Z,95.53
2023-02-25T07:42:21.231Z,95.47
2023-02-25T07:44:50.157Z,95.29
2023-02-25T07:47:19.309Z,95.34
2023-02-25T07:49:47.972Z,95.50
2023-02-25T07:52:17.567Z,94.91
2023-02-25T07:54:46.136Z,94.86
2023-02-25T07:57:14.651Z,95.20
2023-02-25T07:59:43.230Z,94.91
2023-02-25T08:02:12.514Z,95.00
2023-02-25T08:04:41.112Z,94.72
2023-02-25T08:07:09.322Z,94.88
2023-02-25T08:09:39.082Z,94.30
2023-02-25T08:12:07.364Z,94.36
2023-02-25T08:14:35.953Z,94.55
2023-02-25T08:17:04.484Z,94.57
2023-02-25T08:19:33.087Z,94.46
2023-02-25T08:22:01.324Z,94.06
2023-02-25T08:24:29.892Z,93.95
2023-02-25T08:26:59.701Z,94.22
2023-02-25T08:29:28.385Z,94.05
2023-02-25T08:31:57.046Z,93.48
2023-02-25T08:34:25.910Z,93.70
2023-02-25T08:36:54.510Z,93.42
2023-02-25T08:39:23.615Z,93.19
2023-02-25T08:41:52.151Z,93.05
2023-02-25T08:44:21.767Z,92.98
2023-02-25T08:46:50.526Z,93.09
2023-02-25T08:49:19.249Z,92.57
2023-02-25T08:51:50.644Z,92.32
2023-02-25T08:54:19.247Z,92.20
2023-02-25T08:56:51.050Z,92.25
2023-02-25T08:59:21.224Z,92.14
2023-02-25T09:01:51.631Z,92.06
2023-02-25T09:04:22.812Z,92.19
2023-02-25T09:06:54.041Z,91.95
2023-02-25T09:09:23.508Z,92.13
2023-02-25T09:11:52.546Z,92.15
2023-02-25T09:14:22.757Z,91.14
2023-02-25T09:16:51.884Z,91.53
2023-02-25T09:19:20.802Z,91.71
2023-02-25T09:21:49.674Z,91.63
2023-02-25T09:24:18.874Z,91.50
2023-02-25T09:26:48.137Z,91.54
2023-02-25T09:29:16.966Z,91.08
2023-02-25T09:31:46.676Z,90.68
2023-02-25T09:34:15.451Z,90.13
2023-02-25T09:36:44.268Z,89.93
2023-02-25T09:39:12.727Z,89.36
2023-02-25T09:41:51.142Z,89.20
2023-02-25T09:44:22.285Z,88.96
2023-02-25T09:46:57.414Z,89.09
2023-02-25T09:49:32.886Z,89.11
2023-02-25T09:52:08.759Z,89.12
2023-02-25T09:54:44.872Z,88.73
2023-02-25T09:57:19.092Z,88.77
2023-02-25T09:59:48.254Z,89.10
2023-02-25T10:02:33.911Z,89.41
2023-02-25T10:05:22.562Z,89.03
2023-02-25T10:08:03.057Z,89.02
2023-02-25T10:10:46.671Z,89.37
2023-02-25T10:13:30.641Z,89.26
2023-02-25T10:16:11.250Z,88.83
2023-02-25T10:19:01.775Z,88.76
2023-02-25T10:21:51.419Z,88.81
2023-02-25T10:24:31.422Z,88.47
2023-02-25T10:27:17.203Z,88.73
2023-02-25T10:29:50.211Z,88.76
2023-02-25T10:32:23.313Z,88.67
2023-02-25T10:34:57.896Z,88.12
2023-02-25T10:37:33.674Z,87.82
2023-02-25T10:40:10.861Z,87.87
2023-02-25T10:42:39.791Z,87.35
2023-02-25T10:45:14.928Z,86.96
2023-02-25T10:47:48.433Z,87.02
2023-02-25T10:50:38.808Z,86.71
2023-02-25T10:53:16.687Z,87.19
2023-02-25T10:55:55.009Z,87.30
2023-02-25T10:58:40.790Z,87.39
2023-02-25T11:01:15.251Z,86.42
2023-02-25T11:03:54.100Z,86.25
2023-02-25T11:06:29.125Z,85.94
2023-02-25T11:08:59.876Z,85.33
2023-02-25T11:11:32.130Z,85.13
2023-02-25T11:14:05.158Z,84.61
2023-02-25T11:16:37.045Z,83.42
2023-02-25T11:19:16.032Z,82.46
2023-02-25T11:21:47.148Z,82.23
2023-02-25T11:24:17.951Z,82.06
2023-02-25T11:26:48.913Z,82.17
2023-02-25T11:29:22.988Z,82.49
2023-02-25T11:31:55.013Z,82.63
2023-02-25T11:34:27.858Z,82.55
2023-02-25T11:36:59.853Z,82.53
2023-02-25T11:39:30.838Z,82.16
2023-02-25T11:42:03.805Z,81.67
2023-02-25T11:44:43.479Z,81.73
2023-02-25T11:47:25.931Z,81.02
2023-02-25T11:50:27.035Z,80.71
2023-02-25T11:53:06.447Z,80.52
2023-02-25T11:55:50.800Z,80.70
2023-02-25T11:58:33.045Z,80.80
2023-02-25T12:01:05.734Z,80.55
2023-02-25T12:04:08.029Z,80.68
2023-02-25T12:06:55.969Z,79.97
2023-02-25T12:10:04.463Z,79.32
2023-02-25T12:13:23.747Z,78.67
2023-02-25T12:16:30.954Z,78.06
2023-02-25T12:19:55.412Z,77.60
2023-02-25T12:23:09.646Z,77.10
2023-02-25T12:25:50.865Z,75.97
2023-02-25T12:29:06.950Z,75.55
2023-02-25T12:32:16.186Z,75.80
2023-02-25T12:35:23.196Z,75.37
2023-02-25T12:38:33.932Z,75.48
2023-02-25T12:41:25.248Z,75.55
2023-02-25T12:44:09.242Z,75.49
2023-02-25T12:47:03.093Z,75.59
2023-02-25T12:50:07.253Z,75.65
2023-02-25T12:52:47.426Z,74.03
2023-02-25T12:55:46.919Z,74.20
2023-02-25T12:58:34.596Z,73.77
2023-02-25T13:01:28.179Z,73.86
2023-02-25T13:04:26.811Z,73.73
2023-02-25T13:07:34.073Z,75.26
2023-02-25T13:10:29.983Z,76.52
2023-02-25T13:14:01.834Z,78.08
2023-02-25T13:16:50.287Z,78.53
2023-02-25T13:19:57.378Z,79.37
2023-02-25T13:22:50.650Z,80.14
2023-02-25T13:25:28.736Z,80.22
2023-02-25T13:28:30.595Z,80.76
2023-02-25T13:31:08.365Z,80.45
2023-02-25T13:34:08.374Z,80.47
2023-02-25T13:37:17.651Z,80.42
2023-02-25T13:40:20.514Z,79.84
2023-02-25T13:43:33.693Z,80.20
2023-02-25T13:46:18.605Z,80.02
2023-02-25T13:49:29.881Z,80.44
2023-02-25T13:52:22.245Z,80.17
2023-02-25T13:55:34.802Z,80.18
2023-02-25T13:58:31.778Z,80.08
2023-02-25T14:01:27.838Z,80.36
2023-02-25T14:05:00.314Z,80.49
2023-02-25T14:08:13.856Z,80.18
2023-02-25T14:10:55.331Z,80.11
2023-02-25T14:13:59.443Z,79.92
2023-02-25T14:16:55.442Z,79.65
2023-02-25T14:19:35.886Z,78.60
2023-02-25T14:22:37.917Z,78.33
2023-02-25T14:25:27.913Z,77.39
2023-02-25T14:28:08.290Z,77.11
2023-02-25T14:30:52.678Z,76.63
2023-02-25T14:33:43.279Z,76.68
2023-02-25T14:36:36.497Z,76.80
2023-02-25T14:39:27.592Z,76.60
2023-02-25T14:42:13.511Z,76.68
2023-02-25T14:44:46.293Z,75.75
2023-02-25T14:47:23.654Z,74.51
2023-02-25T14:50:01.489Z,74.01
2023-02-25T14:53:17.508Z,73.60
2023-02-25T14:56:37.154Z,73.35
2023-02-25T14:59:48.226Z,71.95
2023-02-25T15:02:30.743Z,72.26
2023-02-25T15:05:55.277Z,72.58
2023-02-25T15:09:13.294Z,72.66
2023-02-25T15:11:57.316Z,71.24
2023-02-25T15:14:58.978Z,72.35
2023-02-25T15:18:29.795Z,73.28
2023-02-25T15:20:58.732Z,73.54
2023-02-25T15:23:43.238Z,73.99
2023-02-25T15:26:27.205Z,74.26
2023-02-25T15:28:56.759Z,73.55
2023-02-25T15:31:31.226Z,73.81
2023-02-25T15:34:55.696Z,74.09
2023-02-25T15:37:37.374Z,74.35
2023-02-25T15:40:47.821Z,76.04
2023-02-25T15:43:43.477Z,77.12
2023-02-25T15:46:44.130Z,78.14
2023-02-25T15:49:34.017Z,78.45
2023-02-25T15:52:05.353Z,79.14
2023-02-25T15:54:52.925Z,79.47
2023-02-25T15:57:38.941Z,79.92
2023-02-25T16:00:54.688Z,80.16
2023-02-25T16:03:42.339Z,80.41
2023-02-25T16:06:21.187Z,80.42
2023-02-25T16:08:59.615Z,80.67
2023-02-25T16:11:37.680Z,80.75
2023-02-25T16:14:12.959Z,80.47
2023-02-25T16:16:48.070Z,80.80
2023-02-25T16:19:20.397Z,80.89
2023-02-25T16:21:54.958Z,81.22
2023-02-25T16:24:24.004Z,81.64
2023-02-25T16:26:59.814Z,81.44
2023-02-25T16:29:53.250Z,82.13
2023-02-25T16:32:36.442Z,81.86
2023-02-25T16:35:11.174Z,82.24
2023-02-25T16:37:45.796Z,83.06
2023-02-25T16:40:21.442Z,83.18
2023-02-25T16:42:50.191Z,83.42
2023-02-25T16:45:27.957Z,83.55
2023-02-25T16:48:01.853Z,83.55
2023-02-25T16:50:32.400Z,83.83
2023-02-25T16:53:03.329Z,83.75
2023-02-25T16:55:39.968Z,84.30
2023-02-25T16:58:23.604Z,84.69
2023-02-25T17:00:54.431Z,84.50
2023-02-25T17:03:27.083Z,84.91
2023-02-25T17:06:15.518Z,84.90
2023-02-25T17:08:47.394Z,85.40
2023-02-25T17:11:18.867Z,85.20
2023-02-25T17:13:49.570Z,85.43
2023-02-25T17:16:24.884Z,85.79
2023-02-25T17:18:59.103Z,85.92
2023-02-25T17:21:30.432Z,86.00
2023-02-25T17:24:01.756Z,86.31
2023-02-25T17:26:31.651Z,86.15
2023-02-25T17:29:03.184Z,86.47
2023-02-25T17:31:32.106Z,86.64
2023-02-25T17:34:04.527Z,87.09
2023-02-25T17:36:39.231Z,86.94
2023-02-25T17:39:12.718Z,86.88
2023-02-25T17:41:43.195Z,87.28
2023-02-25T17:44:12.155Z,87.40
2023-02-25T17:46:44.658Z,87.59
2023-02-25T17:49:26.728Z,87.78
2023-02-25T17:51:58.162Z,87.81
2023-02-25T17:54:29.690Z,87.86
2023-02-25T17:57:00.919Z,87.92
2023-02-25T17:59:40.911Z,87.69
2023-02-25T18:02:39.206Z,87.98
2023-02-25T18:05:23.783Z,87.83
2023-02-25T18:08:09.830Z,88.14
2023-02-25T18:10:46.019Z,88.17
2023-02-25T18:13:24.876Z,87.84
2023-02-25T18:16:29.164Z,88.05
2023-02-25T18:18:59.794Z,87.60
2023-02-25T18:21:29.838Z,87.57
2023-02-25T18:24:00.303Z,87.14
2023-02-25T18:26:28.968Z,87.04
2023-02-25T18:28:58.423Z,86.63
2023-02-25T18:31:27.253Z,86.27
2023-02-25T18:33:55.555Z,86.15
2023-02-25T18:36:27.314Z,85.61
2023-02-25T18:39:03.623Z,85.12
2023-02-25T18:41:33.548Z,85.22
2023-02-25T18:44:02.458Z,84.84
2023-02-25T18:46:31.108Z,84.46
2023-02-25T18:48:59.625Z,84.65
2023-02-25T18:51:28.307Z,84.09
2023-02-25T18:53:57.840Z,83.66
2023-02-25T18:56:26.547Z,83.44
2023-02-25T18:58:57.378Z,83.16
2023-02-25T19:01:29.457Z,82.76
2023-02-25T19:03:59.940Z,83.21
2023-02-25T19:06:30.781Z,83.17
2023-02-25T19:09:00.822Z,83.01
2023-02-25T19:11:35.789Z,83.03
2023-02-25T19:14:05.783Z,82.79
2023-02-25T19:16:34.319Z,82.74
2023-02-25T19:19:02.886Z,82.95
2023-02-25T19:21:32.010Z,83.08
2023-02-25T19:24:01.652Z,83.01
2023-02-25T19:26:30.594Z,82.81
2023-02-25T19:29:01.177Z,82.94
2023-02-25T19:31:29.815Z,82.76
2023-02-25T19:33:58.308Z,82.96
2023-02-25T19:36:27.022Z,82.79
2023-02-25T19:38:55.814Z,82.94
2023-02-25T19:41:25.736Z,82.93
2023-02-25T19:43:54.257Z,83.14
2023-02-25T19:46:22.702Z,82.89
2023-02-25T19:48:51.463Z,82.72
2023-02-25T19:51:19.936Z,82.75
2023-02-25T19:53:48.663Z,82.80
2023-02-25T19:56:17.875Z,82.69
2023-02-25T19:58:47.510Z,82.71
2023-02-25T20:01:16.216Z,82.59
2023-02-25T20:03:44.523Z,82.76
2023-02-25T20:06:13.626Z,82.59
2023-02-25T20:08:42.659Z,82.68
2023-02-25T20:11:12.026Z,82.61
2023-02-25T20:13:40.537Z,82.67
2023-02-25T20:16:10.409Z,82.79
2023-02-25T20:18:38.998Z,82.63
2023-02-25T20:21:07.909Z,82.83
2023-02-25T20:23:37.824Z,82.63
2023-02-25T20:26:09.611Z,82.58
2023-02-25T20:28:38.299Z,82.47
2023-02-25T20:31:10.385Z,82.75
2023-02-25T20:33:39.654Z,82.65
2023-02-25T20:36:21.764Z,82.70
2023-02-25T20:39:16.654Z,83.07
2023-02-25T20:41:47.130Z,82.68
2023-02-25T20:44:16.606Z,82.75
2023-02-25T20:46:46.796Z,82.65
2023-02-25T20:49:18.898Z,82.66
2023-02-25T20:51:48.811Z,82.74
2023-02-25T20:54:19.800Z,82.79
2023-02-25T20:56:50.801Z,82.71
2023-02-25T20:59:20.011Z,82.78
2023-02-25T21:01:49.759Z,82.88
2023-02-25T21:04:18.301Z,82.93
2023-02-25T21:06:46.817Z,82.78
2023-02-25T21:09:15.618Z,82.79
2023-02-25T21:11:44.125Z,82.88
2023-02-25T21:14:12.645Z,83.06
2023-02-25T21:16:41.489Z,83.01
2023-02-25T21:19:11.179Z,82.98
2023-02-25T21:21:39.513Z,83.02
2023-02-25T21:24:12.332Z,83.10
2023-02-25T21:26:40.904Z,83.05
2023-02-25T21:29:09.662Z,83.04
2023-02-25T21:31:38.261Z,83.29
2023-02-25T21:34:09.102Z,83.11
2023-02-25T21:36:38.981Z,83.07
2023-02-25T21:39:09.141Z,83.10
2023-02-25T21:41:44.324Z,83.20
2023-02-25T21:44:14.409Z,83.29
2023-02-25T21:46:43.588Z,83.30
2023-02-25T21:49:12.133Z,83.22
2023-02-25T21:51:41.755Z,83.15
2023-02-25T21:54:10.388Z,83.07
2023-02-25T21:56:39.057Z,83.17
2023-02-25T21:59:07.864Z,83.18
2023-02-25T22:01:40.299Z,83.39
2023-02-25T22:04:09.718Z,83.52
2023-02-25T22:06:38.551Z,83.35
2023-02-25T22:09:08.163Z,83.45
2023-02-25T22:11:38.870Z,83.38
2023-02-25T22:14:09.663Z,83.39
2023-02-25T22:16:39.919Z,83.37
2023-02-25T22:19:08.489Z,83.29
2023-02-25T22:21:37.625Z,83.46
2023-02-25T22:24:08.239Z,83.28
2023-02-25T22:26:37.778Z,83.19
2023-02-25T22:29:09.180Z,83.13
2023-02-25T22:31:37.872Z,83.28
2023-02-25T22:34:08.093Z,83.26
2023-02-25T22:36:36.765Z,83.34
2023-02-25T22:39:06.852Z,83.38
2023-02-25T22:41:37.814Z,83.24
2023-02-25T22:44:06.786Z,83.39
2023-02-25T22:46:37.515Z,83.23
2023-02-25T22:49:06.834Z,83.35
2023-02-25T22:51:40.458Z,83.17
2023-02-25T22:54:09.044Z,83.35
2023-02-25T22:56:39.291Z,83.49
2023-02-25T22:59:08.256Z,83.55
2023-02-25T23:01:36.981Z,83.55
2023-02-25T23:04:07.333Z,83.82
2023-02-25T23:06:45.185Z,83.73
2023-02-25T23:09:14.838Z,83.32
2023-02-25T23:11:45.624Z,83.52
2023-02-25T23:14:15.343Z,83.71
2023-02-25T23:16:45.934Z,83.59
2023-02-25T23:19:17.180Z,83.55
2023-02-25T23:21:46.207Z,83.59
2023-02-25T23:24:17.334Z,83.87
2023-02-25T23:26:50.354Z,83.68
2023-02-25T23:29:19.470Z,83.71
2023-02-25T23:31:49.718Z,83.62
2023-02-25T23:34:22.762Z,83.69
2023-02-25T23:36:51.845Z,83.88
2023-02-25T23:39:20.376Z,83.94
2023-02-25T23:41:50.208Z,83.64
2023-02-25T23:44:18.703Z,83.58
2023-02-25T23:46:47.369Z,83.98
2023-02-25T23:49:17.652Z,84.17
2023-02-25T23:51:48.487Z,84.28
2023-02-25T23:54:19.292Z,83.78
2023-02-25T23:56:49.842Z,83.99
2023-02-25T23:59:18.396Z,84.29
